createdAt,value
2022-11-13T00:01:17.431Z,15.23
2022-11-13T00:03:45.840Z,15.33
2022-11-13T00:06:24.538Z,15.33
2022-11-13T00:08:56.307Z,12.47
2022-11-13T00:11:25.778Z,14.10
2022-11-13T00:13:54.074Z,13.90
2022-11-13T00:16:23.036Z,14.47
2022-11-13T00:18:51.290Z,15.13
2022-11-13T00:21:21.352Z,15.53
2022-11-13T00:23:50.023Z,13.90
2022-11-13T00:26:21.807Z,15.00
2022-11-13T00:32:03.854Z,14.23
2022-11-13T00:34:47.184Z,13.73
2022-11-13T00:37:16.879Z,13.40
2022-11-13T00:39:45.629Z,14.77
2022-11-13T00:42:16.730Z,13.10
2022-11-13T00:44:45.293Z,13.30
2022-11-13T00:47:14.274Z,13.40
2022-11-13T00:49:42.476Z,13.40
2022-11-13T00:52:10.673Z,12.10
2022-11-13T00:54:38.926Z,11.87
2022-11-13T00:57:07.749Z,12.23
2022-11-13T00:59:37.422Z,12.13
2022-11-13T01:02:05.818Z,12.20
2022-11-13T01:04:34.152Z,11.30
2022-11-13T01:07:02.608Z,12.73
2022-11-13T01:09:30.951Z,12.67
2022-11-13T01:12:00.652Z,13.23
2022-11-13T01:14:28.971Z,14.23
2022-11-13T01:16:58.549Z,13.53
2022-11-13T01:19:28.320Z,16.00
2022-11-13T01:22:00.019Z,17.70
2022-11-13T01:24:28.447Z,13.97
2022-11-13T01:26:57.190Z,13.43
2022-11-13T01:29:25.439Z,21.40
2022-11-13T01:41:24.842Z,16.07
2022-11-13T01:43:54.124Z,15.53
2022-11-13T01:46:33.233Z,17.30
2022-11-13T01:49:12.518Z,16.87
2022-11-13T01:51:47.664Z,14.53
2022-11-13T01:54:21.631Z,15.63
2022-11-13T01:56:50.366Z,14.57
2022-11-13T01:59:22.853Z,14.80
2022-11-13T02:01:51.339Z,19.57
2022-11-13T02:04:19.628Z,13.27
2022-11-13T02:06:53.345Z,14.57
2022-11-13T02:09:26.326Z,19.43
2022-11-13T02:11:55.248Z,16.63
2022-11-13T02:14:26.925Z,17.53
2022-11-13T02:16:58.980Z,13.30
2022-11-13T02:19:31.104Z,16.27
2022-11-13T02:22:08.179Z,16.23
2022-11-13T02:24:44.967Z,14.53
2022-11-13T02:27:21.435Z,14.23
2022-11-13T02:29:49.686Z,13.77
2022-11-13T02:32:18.445Z,10.97
2022-11-13T02:34:46.704Z,14.13
2022-11-13T02:37:14.950Z,9.67
2022-11-13T02:39:44.527Z,12.37
2022-11-13T02:42:13.051Z,11.87
2022-11-13T02:44:41.270Z,10.87
2022-11-13T02:47:09.512Z,14.10
2022-11-13T02:49:37.806Z,11.17
2022-11-13T02:52:06.831Z,9.83
2022-11-13T02:54:35.284Z,11.20
2022-11-13T02:57:05.061Z,14.63
2022-11-13T02:59:33.247Z,12.83
2022-11-13T03:02:13.880Z,11.87
2022-11-13T03:05:11.401Z,10.40
2022-11-13T03:07:41.040Z,14.30
2022-11-13T03:10:10.965Z,13.33
2022-11-13T03:12:54.729Z,14.37
2022-11-13T03:15:25.469Z,12.80
2022-11-13T03:17:54.140Z,11.30
2022-11-13T03:20:22.556Z,15.93
2022-11-13T03:22:52.075Z,12.70
2022-11-13T03:25:21.763Z,14.50
2022-11-13T03:27:53.305Z,13.80
2022-11-13T03:30:23.177Z,12.33
2022-11-13T03:32:56.053Z,12.03
2022-11-13T03:35:31.264Z,11.57
2022-11-13T03:38:08.278Z,10.47
2022-11-13T03:40:36.699Z,10.50
2022-11-13T03:43:12.648Z,9.40
2022-11-13T03:45:53.092Z,11.57
2022-11-13T03:48:22.532Z,10.90
2022-11-13T03:50:53.843Z,12.00
2022-11-13T03:53:22.544Z,12.37
2022-11-13T03:55:50.900Z,10.50
2022-11-13T03:58:21.039Z,12.23
2022-11-13T04:00:49.865Z,15.80
2022-11-13T04:03:18.482Z,18.80
2022-11-13T04:05:53.478Z,10.37
2022-11-13T04:08:21.687Z,15.73
2022-11-13T04:10:51.478Z,12.00
2022-11-13T04:13:25.338Z,8.30
2022-11-13T04:15:54.903Z,8.50
2022-11-13T04:18:24.314Z,9.77
2022-11-13T04:20:54.274Z,8.87
2022-11-13T04:23:25.101Z,7.60
2022-11-13T04:25:53.393Z,7.80
2022-11-13T04:28:24.134Z,8.47
2022-11-13T04:30:55.303Z,7.87
2022-11-13T04:33:26.157Z,9.40
2022-11-13T04:36:00.939Z,9.27
2022-11-13T04:38:29.459Z,9.50
2022-11-13T04:41:12.827Z,10.63
2022-11-13T04:43:43.105Z,8.67
2022-11-13T04:46:14.690Z,11.50
2022-11-13T04:48:46.902Z,12.37
2022-11-13T04:51:15.473Z,11.00
2022-11-13T04:53:43.747Z,12.37
2022-11-13T04:56:12.102Z,8.90
2022-11-13T04:58:41.397Z,9.93
2022-11-13T05:01:11.629Z,10.90
2022-11-13T05:03:40.064Z,10.77
2022-11-13T05:06:10.756Z,9.53
2022-11-13T05:08:39.675Z,9.90
2022-11-13T05:11:08.071Z,9.07
2022-11-13T05:13:37.900Z,9.13
2022-11-13T05:16:12.066Z,9.83
2022-11-13T05:18:42.375Z,7.90
2022-11-13T05:21:14.321Z,8.23
2022-11-13T05:23:49.739Z,11.60
2022-11-13T05:26:38.083Z,9.17
2022-11-13T05:29:39.664Z,8.17
2022-11-13T05:32:42.723Z,6.93
2022-11-13T05:35:13.320Z,6.73
2022-11-13T05:37:41.592Z,8.13
2022-11-13T05:40:13.636Z,8.20
2022-11-13T05:42:43.285Z,7.30
2022-11-13T05:45:12.615Z,6.43
2022-11-13T05:47:43.639Z,5.47
2022-11-13T05:50:12.252Z,6.10
2022-11-13T05:52:41.575Z,6.27
2022-11-13T05:55:14.093Z,8.63
2022-11-13T05:57:43.586Z,6.60
2022-11-13T06:00:13.318Z,6.57
2022-11-13T06:02:45.184Z,6.83
2022-11-13T06:05:17.628Z,7.17
2022-11-13T06:07:46.128Z,8.80
2022-11-13T06:10:14.278Z,5.60
2022-11-13T06:12:42.474Z,6.20
2022-11-13T06:15:11.665Z,6.80
2022-11-13T06:17:39.894Z,6.40
2022-11-13T06:20:11.499Z,6.03
2022-11-13T06:22:39.846Z,6.90
2022-11-13T06:25:09.156Z,5.70
2022-11-13T06:27:37.337Z,6.40
2022-11-13T06:30:11.435Z,7.17
2022-11-13T06:32:39.644Z,7.43
2022-11-13T06:35:11.116Z,6.73
2022-11-13T06:37:39.299Z,6.67
2022-11-13T06:40:10.573Z,5.33
2022-11-13T06:45:08.992Z,6.90
2022-11-13T06:50:16.995Z,7.10
2022-11-13T06:52:46.049Z,7.93
2022-11-13T06:55:14.324Z,8.40
2022-11-13T06:57:42.359Z,7.23
2022-11-13T07:00:12.313Z,10.03
2022-11-13T07:02:41.774Z,14.33
2022-11-13T07:05:11.436Z,14.00
2022-11-13T07:07:39.746Z,11.73
2022-11-13T07:10:09.128Z,11.60
2022-11-13T07:12:37.820Z,8.07
2022-11-13T07:15:08.834Z,7.03
2022-11-13T07:17:37.120Z,8.10
2022-11-13T07:20:07.786Z,8.80
2022-11-13T07:22:39.725Z,9.53
2022-11-13T07:25:09.196Z,8.50
2022-11-13T07:27:38.665Z,8.33
2022-11-13T07:30:12.574Z,6.60
2022-11-13T07:32:40.855Z,7.23
2022-11-13T07:35:10.188Z,7.30
2022-11-13T07:37:45.910Z,6.23
2022-11-13T07:40:15.533Z,5.97
2022-11-13T07:42:43.748Z,5.77
2022-11-13T07:45:13.335Z,8.30
2022-11-13T07:47:45.077Z,7.83
2022-11-13T07:50:14.553Z,9.07
2022-11-13T07:53:00.787Z,7.67
2022-11-13T07:55:29.614Z,8.10
2022-11-13T07:57:59.751Z,9.90
2022-11-13T08:10:34.585Z,8.43
2022-11-13T08:13:04.682Z,7.97
2022-11-13T08:15:35.012Z,6.97
2022-11-13T08:18:08.544Z,6.57
2022-11-13T08:20:37.906Z,7.70
2022-11-13T08:23:06.959Z,6.97
2022-11-13T08:25:38.073Z,6.53
2022-11-13T08:28:13.186Z,6.93
2022-11-13T08:30:44.895Z,7.97
2022-11-13T08:33:15.032Z,6.87
2022-11-13T08:35:53.073Z,7.30
2022-11-13T08:38:22.242Z,6.67
2022-11-13T08:40:52.654Z,8.23
2022-11-13T08:43:20.915Z,7.50
2022-11-13T08:45:50.812Z,7.73
2022-11-13T08:48:21.859Z,7.33
2022-11-13T08:50:53.805Z,7.37
2022-11-13T08:53:25.775Z,7.70
2022-11-13T08:56:54.723Z,8.40
2022-11-13T08:59:27.287Z,7.47
2022-11-13T09:01:59.386Z,6.83
2022-11-13T09:07:32.405Z,5.93
2022-11-13T09:10:07.345Z,6.30
2022-11-13T09:12:37.202Z,5.97
2022-11-13T09:15:08.122Z,6.70
2022-11-13T09:17:40.682Z,8.27
2022-11-13T09:20:13.856Z,7.00
2022-11-13T09:22:44.737Z,7.70
2022-11-13T09:25:15.937Z,6.63
2022-11-13T09:27:55.417Z,6.77
2022-11-13T09:30:25.870Z,6.47
2022-11-13T09:32:55.956Z,7.13
2022-11-13T09:35:37.247Z,8.43
2022-11-13T09:38:26.001Z,8.83
2022-11-13T09:41:00.141Z,7.90
2022-11-13T09:43:39.117Z,9.27
2022-11-13T09:46:19.104Z,9.93
2022-11-13T09:48:52.236Z,8.87
2022-11-13T09:51:29.097Z,8.30
2022-11-13T09:54:24.895Z,8.17
2022-11-13T09:57:26.498Z,7.73
2022-11-13T10:06:50.585Z,8.60
2022-11-13T10:09:27.306Z,9.30
2022-11-13T10:12:34.874Z,8.57
2022-11-13T10:15:37.005Z,8.67
2022-11-13T10:22:31.733Z,9.57
2022-11-13T10:25:03.351Z,8.53
2022-11-13T10:27:31.802Z,8.40
2022-11-13T10:30:00.535Z,7.70
2022-11-13T10:32:34.700Z,10.47
2022-11-13T10:35:24.593Z,7.27
2022-11-13T10:38:07.829Z,7.33
2022-11-13T10:40:39.269Z,7.13
2022-11-13T10:43:55.692Z,6.83
2022-11-13T10:49:32.798Z,7.30
2022-11-13T10:52:11.480Z,7.37
2022-11-13T10:58:18.192Z,6.50
2022-11-13T11:00:53.110Z,6.10
2022-11-13T11:03:24.538Z,6.33
2022-11-13T11:05:59.401Z,5.27
2022-11-13T11:08:46.033Z,4.60
2022-11-13T11:15:21.180Z,5.70
2022-11-13T11:17:57.879Z,7.03
2022-11-13T11:20:44.404Z,7.13
2022-11-13T11:23:24.063Z,8.63
2022-11-13T11:26:14.287Z,6.37
2022-11-13T11:28:49.666Z,7.30
2022-11-13T11:31:30.274Z,6.60
2022-11-13T11:34:09.148Z,6.73
2022-11-13T11:37:13.134Z,6.27
2022-11-13T11:39:47.715Z,6.73
2022-11-13T11:52:15.146Z,4.83
2022-11-13T11:55:17.897Z,5.33
2022-11-13T11:57:54.304Z,5.40
2022-11-13T12:00:43.444Z,6.03
2022-11-13T12:03:46.762Z,4.93
2022-11-13T12:06:25.713Z,5.00
2022-11-13T12:09:04.053Z,6.07
2022-11-13T12:11:42.903Z,6.30
2022-11-13T12:14:21.575Z,5.53
2022-11-13T12:16:57.971Z,5.80
2022-11-13T12:19:55.611Z,6.50
2022-11-13T12:22:44.408Z,6.33
2022-11-13T12:25:26.156Z,6.50
2022-11-13T12:28:10.381Z,6.20
2022-11-13T12:30:49.191Z,6.23
2022-11-13T12:33:27.611Z,6.23
2022-11-13T12:35:57.662Z,6.13
2022-11-13T12:38:45.841Z,5.47
2022-11-13T12:41:26.801Z,6.97
2022-11-13T12:44:27.582Z,6.50
2022-11-13T12:46:59.471Z,7.03
2022-11-13T12:49:34.175Z,5.97
2022-11-13T12:52:07.918Z,6.20
2022-11-13T12:54:39.583Z,6.00
2022-11-13T12:57:27.064Z,5.80
2022-11-13T13:00:00.667Z,6.17
2022-11-13T13:09:41.124Z,6.03
2022-11-13T13:16:25.549Z,5.57
2022-11-13T13:22:59.311Z,6.30
2022-11-13T13:25:34.154Z,5.83
2022-11-13T13:28:20.151Z,6.60
2022-11-13T13:30:57.126Z,6.53
2022-11-13T13:33:43.093Z,6.30
2022-11-13T13:36:33.822Z,5.80
2022-11-13T13:39:10.123Z,5.50
2022-11-13T13:41:53.449Z,5.90
2022-11-13T13:44:43.352Z,5.30
2022-11-13T13:47:18.975Z,5.77
2022-11-13T13:49:48.251Z,5.13
2022-11-13T13:56:08.867Z,5.83
2022-11-13T13:58:40.305Z,6.07
2022-11-13T14:01:20.249Z,5.97
2022-11-13T14:03:49.445Z,5.80
2022-11-13T14:06:23.594Z,6.30
2022-11-13T14:08:52.832Z,5.83
2022-11-13T14:11:27.276Z,5.97
2022-11-13T14:17:29.601Z,6.27
2022-11-13T14:20:01.222Z,6.27
2022-11-13T14:22:30.155Z,6.30
2022-11-13T14:25:29.580Z,6.43
2022-11-13T14:28:04.772Z,6.50
2022-11-13T14:33:53.247Z,6.53
2022-11-13T14:36:34.881Z,6.83
2022-11-13T14:39:05.875Z,6.93
2022-11-13T14:41:37.150Z,8.03
2022-11-13T14:44:09.016Z,8.20
2022-11-13T14:46:39.502Z,7.97
2022-11-13T14:49:17.124Z,7.77
2022-11-13T14:51:56.622Z,7.63
2022-11-13T14:55:00.014Z,8.13
2022-11-13T14:57:24.586Z,8.00
2022-11-13T14:59:53.111Z,6.60
2022-11-13T15:02:23.602Z,6.77
2022-11-13T15:05:01.201Z,7.47
2022-11-13T15:07:39.412Z,7.27
2022-11-13T15:10:19.958Z,6.90
2022-11-13T15:12:50.496Z,7.97
2022-11-13T15:15:28.000Z,7.33
2022-11-13T15:18:04.814Z,6.80
2022-11-13T15:20:37.478Z,7.03
2022-11-13T15:23:09.522Z,7.80
2022-11-13T15:25:39.940Z,7.80
2022-11-13T15:28:09.564Z,7.63
2022-11-13T15:30:39.525Z,7.87
2022-11-13T15:33:30.255Z,8.30
2022-11-13T15:36:22.414Z,8.57
2022-11-13T15:38:57.197Z,8.67
2022-11-13T15:41:30.655Z,8.60
2022-11-13T15:44:03.717Z,8.00
2022-11-13T15:46:40.795Z,8.80
2022-11-13T15:49:17.605Z,9.03
2022-11-13T15:51:50.776Z,8.70
2022-11-13T15:54:32.683Z,8.77
2022-11-13T16:03:20.917Z,8.87
2022-11-13T16:05:50.051Z,8.80
2022-11-13T16:08:22.198Z,9.07
2022-11-13T16:10:52.702Z,10.33
2022-11-13T16:13:21.047Z,10.27
2022-11-13T16:15:51.142Z,9.67
2022-11-13T16:18:36.043Z,9.57
2022-11-13T16:21:22.514Z,9.30
2022-11-13T16:24:03.690Z,9.23
2022-11-13T16:27:12.471Z,9.57
2022-11-13T16:29:49.217Z,9.07
2022-11-13T16:32:18.114Z,9.67
2022-11-13T16:34:54.801Z,8.37
2022-11-13T16:37:33.792Z,8.80
2022-11-13T16:40:05.897Z,9.40
2022-11-13T16:43:02.940Z,9.97
2022-11-13T16:48:44.751Z,10.43
2022-11-13T16:51:27.750Z,8.90
2022-11-13T16:54:15.963Z,9.63
2022-11-13T16:56:48.253Z,9.93
2022-11-13T16:59:20.512Z,10.33
2022-11-13T17:02:11.663Z,11.80
2022-11-13T17:05:15.994Z,13.87
2022-11-13T17:08:10.414Z,11.43
2022-11-13T17:10:44.155Z,10.73
2022-11-13T17:13:17.564Z,11.63
2022-11-13T17:15:46.285Z,11.43
2022-11-13T17:18:47.650Z,12.33
2022-11-13T17:21:18.025Z,12.97
2022-11-13T17:23:46.843Z,13.00
2022-11-13T17:26:15.912Z,14.20
2022-11-13T17:28:45.687Z,15.00
2022-11-13T17:31:32.119Z,15.27
2022-11-13T17:34:09.124Z,14.17
2022-11-13T17:36:58.001Z,13.97
2022-11-13T17:39:38.954Z,17.13
2022-11-13T17:42:08.706Z,16.03
2022-11-13T17:44:39.766Z,14.50
2022-11-13T17:47:09.231Z,15.07
2022-11-13T17:50:01.169Z,15.27
2022-11-13T17:52:37.524Z,14.83
2022-11-13T17:55:14.744Z,18.13
2022-11-13T17:58:13.161Z,14.63
2022-11-13T18:00:57.257Z,23.00
2022-11-13T18:03:52.864Z,15.20
2022-11-13T18:06:26.044Z,15.60
2022-11-13T18:08:59.033Z,15.90
2022-11-13T18:15:08.205Z,18.67
2022-11-13T18:17:48.261Z,16.30
2022-11-13T18:20:23.221Z,15.40
2022-11-13T18:22:55.309Z,14.47
2022-11-13T18:25:24.659Z,16.47
2022-11-13T18:27:52.970Z,14.03
2022-11-13T18:30:22.364Z,13.40
2022-11-13T18:33:06.165Z,15.50
2022-11-13T18:36:29.769Z,16.17
2022-11-13T18:42:01.997Z,17.90
2022-11-13T18:44:30.519Z,14.20
2022-11-13T18:50:38.375Z,14.37
2022-11-13T18:53:14.269Z,14.57
2022-11-13T18:55:42.866Z,14.93
2022-11-13T18:58:12.285Z,13.67
2022-11-13T19:00:40.666Z,14.13
2022-11-13T19:10:15.547Z,13.57
2022-11-13T19:12:46.206Z,14.70
2022-11-13T19:15:14.715Z,16.43
2022-11-13T19:17:46.199Z,14.40
2022-11-13T19:20:20.766Z,13.97
2022-11-13T19:22:51.067Z,15.07
2022-11-13T19:25:21.288Z,14.00
2022-11-13T19:27:54.125Z,15.87
2022-11-13T19:30:24.331Z,14.80
2022-11-13T19:39:01.593Z,16.33
2022-11-13T19:41:32.235Z,15.40
2022-11-13T19:44:01.518Z,15.27
2022-11-13T19:46:32.102Z,15.40
2022-11-13T19:49:00.608Z,17.60
2022-11-13T19:51:29.402Z,17.47
2022-11-13T19:53:59.204Z,18.43
2022-11-13T19:56:29.398Z,18.30
2022-11-13T19:59:02.383Z,18.07
2022-11-13T20:01:33.065Z,18.10
2022-11-13T20:04:07.824Z,17.03
2022-11-13T20:06:38.086Z,17.70
2022-11-13T20:09:10.280Z,15.33
2022-11-13T20:11:40.040Z,15.73
2022-11-13T20:14:22.575Z,13.47
2022-11-13T20:16:50.881Z,12.53
2022-11-13T20:19:24.315Z,12.43
2022-11-13T20:21:52.922Z,13.77
2022-11-13T20:24:22.629Z,22.00
2022-11-13T20:26:51.177Z,48.03
2022-11-13T20:29:25.733Z,15.90
2022-11-13T20:31:56.315Z,15.67
2022-11-13T20:34:25.659Z,81.10
2022-11-13T20:36:55.101Z,99.63
2022-11-13T20:39:31.414Z,79.40
2022-11-13T20:42:00.764Z,26.53
2022-11-13T20:44:34.479Z,12.20
2022-11-13T20:47:21.788Z,14.20
2022-11-13T20:49:52.544Z,13.63
2022-11-13T20:56:06.527Z,9.57
2022-11-13T20:58:49.332Z,13.33
2022-11-13T21:01:21.262Z,14.73
2022-11-13T21:03:50.213Z,16.23
2022-11-13T21:06:20.901Z,16.80
2022-11-13T21:08:49.783Z,14.00
2022-11-13T21:11:22.145Z,12.83
2022-11-13T21:20:34.603Z,10.73
2022-11-13T21:23:04.715Z,12.53
2022-11-13T21:25:33.519Z,11.60
2022-11-13T21:28:02.163Z,9.40
2022-11-13T21:30:30.945Z,8.90
2022-11-13T21:33:00.346Z,9.57
2022-11-13T21:35:28.909Z,9.00
2022-11-13T21:37:59.673Z,9.23
2022-11-13T21:40:28.355Z,9.67
2022-11-13T21:42:57.859Z,10.00
2022-11-13T21:45:26.349Z,9.73
2022-11-13T21:47:55.117Z,9.77
2022-11-13T21:50:23.827Z,9.60
2022-11-13T21:52:54.031Z,9.70
2022-11-13T21:55:26.980Z,10.07
2022-11-13T21:57:55.430Z,10.20
2022-11-13T22:00:24.091Z,10.60
2022-11-13T22:02:52.515Z,10.90
2022-11-13T22:05:22.423Z,11.13
2022-11-13T22:07:50.667Z,17.70
2022-11-13T22:10:19.432Z,11.90
2022-11-13T22:12:51.458Z,11.87
2022-11-13T22:15:20.221Z,12.70
2022-11-13T22:17:48.614Z,12.77
2022-11-13T22:20:19.394Z,12.47
2022-11-13T22:23:00.794Z,12.50
2022-11-13T22:25:35.982Z,12.53
2022-11-13T22:28:06.300Z,12.00
2022-11-13T22:30:35.023Z,10.83
2022-11-13T22:33:04.623Z,11.33
2022-11-13T22:35:33.047Z,10.03
2022-11-13T22:38:03.434Z,11.53
2022-11-13T22:40:33.537Z,10.63
2022-11-13T22:43:01.848Z,11.33
2022-11-13T22:45:31.659Z,13.00
2022-11-13T22:48:00.192Z,13.17
2022-11-13T22:50:28.677Z,13.43
2022-11-13T22:52:57.018Z,15.60
2022-11-13T22:55:40.368Z,15.77
2022-11-13T22:58:09.149Z,14.83
2022-11-13T23:00:39.210Z,14.60
2022-11-13T23:03:07.551Z,13.90
2022-11-13T23:05:36.934Z,13.67
2022-11-13T23:08:05.366Z,12.80
2022-11-13T23:10:34.382Z,13.87
2022-11-13T23:13:02.677Z,13.47
2022-11-13T23:15:31.078Z,13.27
2022-11-13T23:18:03.540Z,13.97
2022-11-13T23:20:34.247Z,13.60
2022-11-13T23:23:02.902Z,13.90
2022-11-13T23:25:33.244Z,13.93
2022-11-13T23:28:01.642Z,13.57
2022-11-13T23:30:30.805Z,13.83
2022-11-13T23:33:00.513Z,14.60
2022-11-13T23:35:29.003Z,14.77
2022-11-13T23:37:57.444Z,14.20
2022-11-13T23:40:25.740Z,13.97
2022-11-13T23:42:55.466Z,15.10
2022-11-13T23:45:24.031Z,13.03
2022-11-13T23:47:52.307Z,13.20
2022-11-13T23:50:22.183Z,12.90
2022-11-13T23:52:50.654Z,12.77
2022-11-13T23:55:21.322Z,13.37
2022-11-13T23:57:53.033Z,13.87
